Sweeney Granite Mountains, California Weather observations

Data are for 10 minute period ending at time listed.
 Day   Time   Solar   Ave.   Ave.  Ave.  Vector  Max.   Baro.   Total    
  of    of     Rad.   Air    Rel.  Wind   Wind   Wind  Press.  Precip.   
Year   Day            Temp.  Hum.  Speed  Dir.   Gust                    
2014   (PST)  Kw/m2    F      %     mph   deg.    mph    mb.     in.     
-------------------------------------------------------------------------
 231    2:10   0.00   71.2    78    2.6   227     4.7   867.5    0.00 
 231    2:20   0.00   71.0    79    3.0   219     6.5   867.4    0.00 
 231    2:30   0.00   70.4    81    2.4   207     5.5   867.3    0.00 
 231    2:40   0.00   70.2    82    2.8   223     4.7   867.3    0.00 
 231    2:50   0.00   70.2    82    1.9   222     4.3   867.2    0.00 
 231    3:00   0.00   70.0    82    2.0   235     3.3   867.1    0.00 
 231    3:10   0.00   69.6    83    2.0   237     4.0   867.0    0.00 
 231    3:20   0.00   69.0    84    2.5   267     4.2   866.9    0.00 
 231    3:30   0.00   69.6    84    3.1   224     5.0   866.7    0.00 
 231    3:40   0.00   69.8    84    2.7   227     5.0   866.7    0.00 
 231    3:50   0.00   69.7    84    3.0   227     5.0   866.7    0.00 
 231    4:00   0.00   69.0    85    2.2   252     3.5   866.7    0.00 
 231    4:10   0.00   68.1    86    0.4   225     2.1   866.7    0.00 
 231    4:20   0.00   67.8    88    2.2   224     4.5   866.8    0.00 
 231    4:30   0.00   67.8    87    2.1   266     3.8   866.7    0.00 
 231    4:40   0.00   67.8    88    2.3   272     3.8   866.8    0.00 
 231    4:50   0.00   68.5    87    1.3   242     3.0   866.8    0.00 
 231    5:00   0.00   67.9    87    1.2   220     4.2   866.8    0.00 
 231    5:10   0.00   68.1    88    2.0   252     4.1   866.8    0.00 
 231    5:20   0.00   68.4    87    2.7   237     5.4   867.0    0.00 
 231    5:30   0.00   68.8    87    3.7   218     5.4   867.1    0.00 
 231    5:40   0.01   69.0    87    4.0   216     5.7   867.2    0.00 
 231    5:50   0.01   69.0    87    2.8   225     4.4   867.3    0.00 
 231    6:00   0.03   69.0    87    3.7   223     5.8   867.3    0.00 
 231    6:10   0.04   69.0    87    2.6   198     5.0   867.3    0.00 
 231    6:20   0.05   69.0    87    2.0   167     4.2   867.4    0.00 
 231    6:30   0.17   70.4    85    1.3   144     3.8   867.5    0.00 
 231    6:40   0.13   71.1    82    2.6   205     3.5   867.5    0.00 
 231    6:50   0.17   70.7    83    2.3   207     4.5   867.5    0.00 
 231    7:00   0.26   72.0    80    2.7   107     4.7   867.6    0.00 
 231    7:10   0.37   73.1    76    3.1   118     5.5   867.7    0.00 
 231    7:20   0.39   75.2    70    2.0   146     5.3   867.8    0.00 
 231    7:30   0.41   75.6    69    2.0    88     4.4   867.9    0.00 
 231    7:40   0.46   75.0    70    3.0   124     6.4   867.9    0.00 
 231    7:50   0.43   76.4    66    2.7   162     7.2   868.0    0.00 
 231    8:00   0.55   76.8    64    2.3   142     6.1   868.1    0.00 
 231    8:10   0.51   76.8    63    2.4    81     6.5   868.2    0.00 
 231    8:20   0.61   76.9    62    3.0    82     5.4   868.2    0.00 
 231    8:30   0.68   77.8    58    3.5   173     8.6   868.3    0.00 
 231    8:40   0.56   77.4    58    4.4   128     9.1   868.3    0.00 
 231    8:50   0.66   77.3    56    3.7    98     7.6   868.3    0.00 
 231    9:00   0.79   78.1    55    5.8   121     9.1   868.4    0.00 
 231    9:10   0.83   78.3    51    4.2   128    11.5   868.5    0.00 
 231    9:20   0.90   79.9    50    4.3   144     9.3   868.6    0.00 
 231    9:30   0.94   79.9    51    6.2   144    12.3   868.6    0.00 
 231    9:40   0.49   78.5    53    5.9   115    10.2   868.6    0.00 
 231    9:50   0.93   78.6    52    6.2   120    12.7   868.6    0.00 
 231   10:00   0.86   79.6    53    7.9   115    18.8   868.6    0.00 
 231   10:10   0.45   78.4    56    5.5   108    11.6   868.6    0.00 
 231   10:20   0.98   79.3    53    6.4   104    12.8   868.6    0.00 
 231   10:30   0.98   80.6    48    5.4   128     9.6   868.6    0.00 
 231   10:40   0.95   82.0    44    2.4   108     5.3   868.5    0.00 
 231   10:50   0.95   81.9    43    5.3   203    10.7   868.5    0.00 
 231   11:00   0.97   82.6    39    5.6   224    14.2   868.4    0.00 
 231   11:10   0.95   82.9    38    4.6   250    11.0   868.2    0.00 
 231   11:20   0.98   82.6    37    6.2   258    12.8   868.1    0.00 
 231   11:30   0.99   82.1    36    6.6   213    15.3   868.1    0.00 
 231   11:40   0.98   82.4    36    4.9   267    10.4   868.0    0.00 
 231   11:50   0.95   82.4    36    6.4   172    15.2   868.0    0.00 
 231   12:00   0.99   82.3    34    7.6   182    17.1   867.8    0.00 
 231   12:10   0.94   83.5    33    3.7   208    10.9   867.8    0.00 
 231   12:20   1.02   84.3    32    4.7   166    10.8   867.7    0.00 
 231   12:30   0.90   83.9    31    5.2   155    11.2   867.7    0.00 
 231   12:40   0.37   81.5    36    6.7   109    18.3   867.5    0.00 
 231   12:50   0.66   81.3    39    4.2   187    13.7   867.4    0.00 
 231   13:00   1.03   83.6    33    6.3   234    15.6   867.2    0.00 
 231   13:10   0.98   84.2    31    6.2   206    15.6   867.1    0.00 
 231   13:20   0.93   83.5    31    8.7   127    19.7   866.9    0.00 
 231   13:30   0.93   85.9    26    4.3   246    10.3   866.8    0.00 
 231   13:40   0.59   85.4    26    4.0   203    11.6   866.6    0.00 
 231   13:50   0.80   84.8    26    5.2   237    16.7   866.5    0.00 
 231   14:00   0.83   86.2    26    6.6   254    11.8   866.4    0.00 
 231   14:10   0.56   84.0    28    6.1   241    17.5   866.2    0.00 
 231   14:20   0.82   85.2    25    5.8   226    16.9   866.1    0.00 
 231   14:30   0.80   86.2    23    8.5   233    19.6   866.0    0.00 
 231   14:40   0.74   85.6    22    5.3   199    12.9   865.9    0.00 
 231   14:50   0.64   86.2    21    4.6   202    15.3   865.9    0.00 
 231   15:00   0.74   86.6    18    7.2   220    16.0   865.8    0.00 
 231   15:10   0.54   86.0    18    9.1   225    17.0   865.7    0.00 
 231   15:20   0.57   85.1    18    4.8   198    13.2   865.6    0.00 
 231   15:30   0.59   86.9    16    6.2   159    13.2   865.6    0.00 
 231   15:40   0.56   87.4    15    3.6   156     9.2   865.5    0.00 
 231   15:50   0.56   87.7    15    6.4   170    18.3   865.4    0.00 
 231   16:00   0.48   86.6    15    9.3   197    18.7   865.4    0.00 
 231   16:10   0.28   85.8    15    6.2   226    17.6   865.4    0.00 
 231   16:20   0.25   86.3    14    4.2   184    14.1   865.3    0.00 
 231   16:30   0.26   85.0    14    4.4   202    13.7   865.4    0.00 
 231   16:40   0.13   85.2    14    4.8   215    11.4   865.4    0.00 
 231   16:50   0.21   83.6    24    9.0    96    18.9   865.5    0.00 
 231   17:00   0.19   81.1    35   11.2   109    18.9   865.5    0.00 
 231   17:10   0.07   80.2    31    9.0   101    16.4   865.4    0.00 
 231   17:20   0.07   78.0    42   10.4   108    16.2   865.5    0.00 
 231   17:30   0.04   77.5    44   11.6    89    17.8   865.5    0.00 
 231   17:40   0.03   76.7    47   12.8    80    19.6   865.6    0.00 
 231   17:50   0.03   76.3    48   12.6    93    22.5   865.5    0.00 
 231   18:00   0.01   76.0    49   15.4    89    23.9   865.6    0.00 
 231   18:10   0.01   75.6    50   13.4    98    20.2   865.7    0.00 
 231   18:20   0.01   75.3    50   11.3    95    20.2   865.7    0.00 
 231   18:30   0.00   75.2    49    9.8    78    16.5   865.7    0.00 
 231   18:40   0.00   75.1    48    7.0    78    12.6   865.8    0.00 
 231   18:50   0.00   74.9    49    8.5    57    14.3   865.8    0.00 
 231   19:00   0.00   74.7    49    7.2    92    11.0   866.0    0.00 
 231   19:10   0.00   74.3    50    4.7    77     8.9   866.1    0.00 
 231   19:20   0.00   73.9    51    6.5   103    11.2   866.2    0.00 
 231   19:30   0.00   73.8    51    5.3    91    12.6   866.3    0.00 
 231   19:40   0.00   73.5    52    4.2    83     7.3   866.4    0.00 
 231   19:50   0.00   73.3    51    4.2    87     8.0   866.5    0.00 
 231   20:00   0.00   72.8    52    3.9    96     6.4   866.5    0.00 
 231   20:10   0.00   72.7    53    3.4   119     7.5   866.7    0.00 
 231   20:20   0.00   71.9    54    0.3   121     2.3   866.7    0.00 
 231   20:30   0.00   71.9    54    0.5    55     1.5   866.7    0.00 
 231   20:40   0.00   71.2    54    1.1   128     2.4   866.8    0.00 
 231   20:50   0.00   71.9    49    1.9   263     5.6   866.9    0.00 
 231   21:00   0.00   73.0    41    1.9   275     3.4   866.8    0.00 
 231   21:10   0.00   73.4    40    0.9   281     2.5   866.8    0.00 
 231   21:20   0.00   73.1    40    1.2   100     2.8   866.9    0.00 
 231   21:30   0.00   72.4    41    1.7    66     3.8   867.0    0.00 
 231   21:40   0.00   71.3    38    2.1    81     4.7   866.9    0.00 
 231   21:50   0.00   72.8    28    2.7   335     6.7   866.9    0.00 
 231   22:00   0.00   73.3    27    3.1   268     6.2   866.8    0.00 
 231   22:10   0.00   73.3    27    2.4   248     3.9   866.9    0.00 
 231   22:20   0.00   72.3    29    2.0   104     4.2   866.9    0.00 
 231   22:30   0.00   71.3    31    0.9   274     2.2   866.9    0.00 
 231   22:40   0.00   71.3    31    3.1   299     6.1   866.9    0.00 
 231   22:50   0.00   70.3    31    7.7   316    18.4   866.8    0.00 
 231   23:00   0.00   71.9    28   13.0   318    19.8   866.9    0.00 
 231   23:10   0.00   71.6    28   15.0   315    20.5   866.9    0.00 
 231   23:20   0.00   71.3    30   11.8   314    16.4   867.0    0.00 
 231   23:30   0.00   71.1    30   11.8   311    18.0   867.0    0.00 
 231   23:40   0.00   70.8    31   10.3   305    14.9   867.1    0.00 
 231   23:50   0.00   70.8    31   10.0   310    14.1   867.2    0.00 
 232    0:00   0.00   71.0    31   11.2   310    14.9   867.1    0.00 
 232    0:10   0.00   71.3    31    8.5   315    16.7   867.0    0.00 
 232    0:20   0.00   71.1    30   10.2   310    15.1   867.0    0.00 
 232    0:30   0.00   70.6    31    9.7   306    14.6   867.0    0.00 
 232    0:40   0.00   70.4    31    9.6   300    13.2   867.1    0.00 
 232    0:50   0.00   70.3    32    8.3   302    10.9   867.1    0.00 
 232    1:00   0.00   70.1    32    7.5   297    10.7   867.1    0.00 
 232    1:10   0.00   69.4    32    8.1   279    11.1   867.1    0.00 
 232    1:20   0.00   70.2    32    7.1   299    11.2   867.2    0.00 
 232    1:30   0.00   69.7    33    8.8   297    12.2   867.2    0.00 
 232    1:40   0.00   70.1    33    7.7   312    11.5   867.2    0.00 
 232    1:50   0.00   69.6    33    6.0   286     7.7   867.2    0.00 
 232    2:00   0.00   69.0    34    7.5   276    11.2   867.3    0.00 

Return to Sweeney Granite Mountains graphs page.


Western Regional Climate Center,wrcc@dri.edu